Drummond, Wisconsin
Current Conditions -  °F | °C
As of 12:53 AM on Sunday 26 Oct 2014 (Local Time) from KASX Reporting Station
Clear Clear  
Wind Chill: 34°   Ceiling: Unl
Heat Index: 38°   Visibility: 10mi
Dew Point: 28°   Wind: 5mph
Humidity: 68%   Direction: 250°WSW
Pressure: 29.98"   Gusts: NA
Location:  46.34°N, 91.26°W
Report Text: KASX 260553Z AUTO 25004KT 10SM CLR 03/M02 A2998 RMK AO2 SLP157 T00331022 10106 20028 401610028 52004
Loading
Personal Weather Stations






























Interactive Weather Map
Tropical Storm Tracking
New forecast layout! Learn more

10-Day Weather Forecast

Advertisements
Track Severe Weather on mobile